createdAt,value
2019-04-03T00:00:16.099Z,9.09
2019-04-03T00:01:16.121Z,9.15
2019-04-03T00:02:16.133Z,9.09
2019-04-03T00:03:16.153Z,9.12
2019-04-03T00:04:16.167Z,9.16
2019-04-03T00:05:16.185Z,9.15
2019-04-03T00:06:16.205Z,9.11
2019-04-03T00:07:16.223Z,9.21
2019-04-03T00:08:16.233Z,9.18
2019-04-03T00:09:16.251Z,9.15
2019-04-03T00:10:16.291Z,9.05
2019-04-03T00:11:16.282Z,9.15
2019-04-03T00:12:16.301Z,9.15
2019-04-03T00:13:16.339Z,9.18
2019-04-03T00:14:16.335Z,9.16
2019-04-03T00:15:16.351Z,9.15
2019-04-03T00:16:16.493Z,9.18
2019-04-03T00:17:16.385Z,9.15
2019-04-03T00:18:16.783Z,9.19
2019-04-03T00:19:17.691Z,9.21
2019-04-03T00:20:18.213Z,9.26
2019-04-03T00:21:17.698Z,9.26
2019-04-03T00:22:16.468Z,9.26
2019-04-03T00:23:16.489Z,9.27
2019-04-03T00:24:16.502Z,9.27
2019-04-03T00:25:16.540Z,9.26
2019-04-03T00:26:16.535Z,9.27
2019-04-03T00:27:16.553Z,9.29
2019-04-03T00:28:16.569Z,9.33
2019-04-03T00:29:16.587Z,9.34
2019-04-03T00:30:16.604Z,9.33
2019-04-03T00:31:16.622Z,9.31
2019-04-03T00:32:16.636Z,9.33
2019-04-03T00:33:16.698Z,9.31
2019-04-03T00:34:16.669Z,9.34
2019-04-03T00:35:16.685Z,9.34
2019-04-03T00:36:16.706Z,9.29
2019-04-03T00:37:16.721Z,9.36
2019-04-03T00:38:16.739Z,9.39
2019-04-03T00:39:16.755Z,9.34
2019-04-03T00:40:16.773Z,9.44
2019-04-03T00:41:16.809Z,9.42
2019-04-03T00:42:16.803Z,9.31
2019-04-03T00:43:16.866Z,9.34
2019-04-03T00:44:16.841Z,9.40
2019-04-03T00:45:16.860Z,9.31
2019-04-03T00:46:16.871Z,9.36
2019-04-03T00:47:16.962Z,9.36
2019-04-03T00:48:16.907Z,9.31
2019-04-03T00:49:16.930Z,9.34
2019-04-03T00:50:16.941Z,9.34
2019-04-03T00:51:16.957Z,9.34
2019-04-03T00:52:16.972Z,9.34
2019-04-03T00:53:16.992Z,9.36
2019-04-03T00:54:17.009Z,9.37
2019-04-03T00:55:17.025Z,9.33
2019-04-03T00:56:17.123Z,9.27
2019-04-03T00:57:17.108Z,9.27
2019-04-03T00:58:17.128Z,9.31
2019-04-03T00:59:17.118Z,9.29
2019-04-03T01:00:17.181Z,9.24
2019-04-03T01:01:17.193Z,9.19
2019-04-03T01:02:17.189Z,9.22
2019-04-03T01:03:17.188Z,9.19
2019-04-03T01:04:17.191Z,9.29
2019-04-03T01:05:17.349Z,9.16
2019-04-03T01:06:17.212Z,9.15
2019-04-03T01:07:17.229Z,9.22
2019-04-03T01:08:17.351Z,9.16
2019-04-03T01:09:17.262Z,9.15
2019-04-03T01:10:17.279Z,9.18
2019-04-03T01:11:17.301Z,9.18
2019-04-03T01:12:17.354Z,9.15
2019-04-03T01:13:17.331Z,9.11
2019-04-03T01:14:17.406Z,9.05
2019-04-03T01:15:17.364Z,9.19
2019-04-03T01:16:17.379Z,9.13
2019-04-03T01:17:17.397Z,9.15
2019-04-03T01:18:17.415Z,9.13
2019-04-03T01:19:17.436Z,9.09
2019-04-03T01:20:17.450Z,9.08
2019-04-03T01:21:17.465Z,9.15
2019-04-03T01:22:17.483Z,9.09
2019-04-03T01:23:17.499Z,9.05
2019-04-03T01:24:17.560Z,9.11
2019-04-03T01:25:17.535Z,9.05
2019-04-03T01:26:17.553Z,9.08
2019-04-03T01:27:17.573Z,9.05
2019-04-03T01:28:17.584Z,9.11
2019-04-03T01:29:17.600Z,9.02
2019-04-03T01:30:17.621Z,9.05
2019-04-03T01:31:17.633Z,9.05
2019-04-03T01:32:17.650Z,9.02
2019-04-03T01:33:17.667Z,8.96
2019-04-03T01:34:18.085Z,9.00
2019-04-03T01:35:17.906Z,8.93
2019-04-03T01:36:18.191Z,8.92
2019-04-03T01:37:19.176Z,8.97
2019-04-03T01:38:19.225Z,8.95
2019-04-03T01:39:19.129Z,8.93
2019-04-03T01:40:20.306Z,8.82
2019-04-03T01:41:20.208Z,8.93
2019-04-03T01:42:17.819Z,8.84
2019-04-03T01:43:17.837Z,8.87
2019-04-03T01:44:17.852Z,8.92
2019-04-03T01:45:17.871Z,8.81
2019-04-03T01:46:17.928Z,8.87
2019-04-03T01:47:17.902Z,8.75
2019-04-03T01:48:17.921Z,8.79
2019-04-03T01:49:17.937Z,8.78
2019-04-03T01:50:17.954Z,8.77
2019-04-03T01:51:17.976Z,8.81
2019-04-03T01:52:18.056Z,8.79
2019-04-03T01:53:18.001Z,8.77
2019-04-03T01:54:18.019Z,8.78
2019-04-03T01:55:18.089Z,8.82
2019-04-03T01:56:18.175Z,8.81
2019-04-03T01:57:18.218Z,8.84
2019-04-03T01:58:18.094Z,8.78
2019-04-03T01:59:18.102Z,8.78
2019-04-03T02:00:18.143Z,8.77
2019-04-03T02:01:18.137Z,8.74
2019-04-03T02:02:18.344Z,8.81
2019-04-03T02:03:18.169Z,8.77
2019-04-03T02:04:18.186Z,8.75
2019-04-03T02:05:18.286Z,8.78
2019-04-03T02:06:18.219Z,8.77
2019-04-03T02:07:18.237Z,8.72
2019-04-03T02:08:18.254Z,8.75
2019-04-03T02:09:18.268Z,8.77
2019-04-03T02:10:18.417Z,8.77
2019-04-03T02:11:18.608Z,8.79
2019-04-03T02:12:19.795Z,8.75
2019-04-03T02:13:18.354Z,8.75
2019-04-03T02:14:21.198Z,8.77
2019-04-03T02:15:20.945Z,8.78
2019-04-03T02:16:18.384Z,8.74
2019-04-03T02:17:18.403Z,8.71
2019-04-03T02:18:18.531Z,8.75
2019-04-03T02:19:18.437Z,8.71
2019-04-03T02:20:18.452Z,8.71
2019-04-03T02:21:18.502Z,8.61
2019-04-03T02:22:18.483Z,8.64
2019-04-03T02:23:18.506Z,8.69
2019-04-03T02:24:18.517Z,8.71
2019-04-03T02:25:18.533Z,8.74
2019-04-03T02:26:18.549Z,8.69
2019-04-03T02:27:18.564Z,8.68
2019-04-03T02:28:18.749Z,8.74
2019-04-03T02:29:18.602Z,8.71
2019-04-03T02:30:18.616Z,8.66
2019-04-03T02:31:19.986Z,8.74
2019-04-03T02:32:18.655Z,8.68
2019-04-03T02:33:18.682Z,8.68
2019-04-03T02:34:18.939Z,8.68
2019-04-03T02:35:18.703Z,8.72
2019-04-03T02:36:18.716Z,8.71
2019-04-03T02:37:18.742Z,8.63
2019-04-03T02:38:21.386Z,8.64
2019-04-03T02:39:18.764Z,8.63
2019-04-03T02:40:18.922Z,8.59
2019-04-03T02:41:18.858Z,8.63
2019-04-03T02:42:18.814Z,8.57
2019-04-03T02:43:18.831Z,8.60
2019-04-03T02:44:19.878Z,8.57
2019-04-03T02:45:22.434Z,8.60
2019-04-03T02:46:18.879Z,8.60
2019-04-03T02:47:18.909Z,8.59
2019-04-03T02:48:18.988Z,8.54
2019-04-03T02:49:18.993Z,8.49
2019-04-03T02:50:18.983Z,8.61
2019-04-03T02:51:19.717Z,8.46
2019-04-03T02:52:19.050Z,8.54
2019-04-03T02:53:19.087Z,8.50
2019-04-03T02:54:19.053Z,8.50
2019-04-03T02:55:19.089Z,8.53
2019-04-03T02:56:19.085Z,8.54
2019-04-03T02:57:19.083Z,8.50
2019-04-03T02:58:21.124Z,8.44
2019-04-03T02:59:19.095Z,8.53
2019-04-03T03:00:19.110Z,8.46
2019-04-03T03:01:19.130Z,8.44
2019-04-03T03:02:19.141Z,8.56
2019-04-03T03:03:19.177Z,8.46
2019-04-03T03:04:21.836Z,8.45
2019-04-03T03:05:19.195Z,8.46
2019-04-03T03:06:19.413Z,8.41
2019-04-03T03:07:19.225Z,8.41
2019-04-03T03:08:22.510Z,8.50
2019-04-03T03:09:19.522Z,8.50
2019-04-03T03:10:20.238Z,8.46
2019-04-03T03:11:23.026Z,8.45
2019-04-03T03:12:19.307Z,8.52
2019-04-03T03:13:19.324Z,8.44
2019-04-03T03:14:19.578Z,8.50
2019-04-03T03:15:19.356Z,8.50
2019-04-03T03:16:19.412Z,8.45
2019-04-03T03:17:22.547Z,8.46
2019-04-03T03:18:19.443Z,8.41
2019-04-03T03:19:19.619Z,8.46
2019-04-03T03:20:19.437Z,8.56
2019-04-03T03:21:19.461Z,8.44
2019-04-03T03:22:19.886Z,8.42
2019-04-03T03:23:22.447Z,8.50
2019-04-03T03:24:19.806Z,8.53
2019-04-03T03:25:19.521Z,8.44
2019-04-03T03:26:19.579Z,8.42
2019-04-03T03:27:19.551Z,8.53
2019-04-03T03:28:19.569Z,8.45
2019-04-03T03:29:24.625Z,8.45
2019-04-03T03:30:37.491Z,8.44
2019-04-03T03:31:22.671Z,8.39
2019-04-03T03:32:25.945Z,8.39
2019-04-03T03:33:29.903Z,8.38
2019-04-03T03:34:43.898Z,8.38
2019-04-03T03:35:28.035Z,8.36
2019-04-03T03:36:23.417Z,8.41
2019-04-03T03:37:19.794Z,8.41
2019-04-03T03:38:19.731Z,8.32
2019-04-03T03:39:19.747Z,8.26
2019-04-03T03:40:19.762Z,8.24
2019-04-03T03:41:23.250Z,8.31
2019-04-03T03:42:19.802Z,8.26
2019-04-03T03:43:19.820Z,8.31
2019-04-03T03:44:19.830Z,8.34
2019-04-03T03:45:20.937Z,8.24
2019-04-03T03:46:19.955Z,8.26
2019-04-03T03:47:19.877Z,8.24
2019-04-03T03:48:19.895Z,8.28
2019-04-03T03:49:19.913Z,8.20
2019-04-03T03:50:22.392Z,8.18
2019-04-03T03:51:19.941Z,8.23
2019-04-03T03:52:19.959Z,8.14
2019-04-03T03:53:20.070Z,8.18
2019-04-03T03:54:19.991Z,8.05
2019-04-03T03:55:23.163Z,8.09
2019-04-03T03:56:20.032Z,8.23
2019-04-03T03:57:20.039Z,8.21
2019-04-03T03:58:20.160Z,8.03
2019-04-03T03:59:20.076Z,8.05
2019-04-03T04:00:22.597Z,8.06
2019-04-03T04:01:20.105Z,8.13
2019-04-03T04:02:20.455Z,8.06
2019-04-03T04:03:20.295Z,8.14
2019-04-03T04:04:20.437Z,8.13
2019-04-03T04:05:22.098Z,8.11
2019-04-03T04:06:20.187Z,8.14
2019-04-03T04:07:20.208Z,8.09
2019-04-03T04:08:20.457Z,8.06
2019-04-03T04:09:20.233Z,8.11
2019-04-03T04:10:24.015Z,8.05
2019-04-03T04:11:20.284Z,8.13
2019-04-03T04:12:20.280Z,8.11
2019-04-03T04:13:20.306Z,8.05
2019-04-03T04:14:22.534Z,8.08
2019-04-03T04:15:20.353Z,8.08
2019-04-03T04:16:20.749Z,8.05
2019-04-03T04:17:20.647Z,8.09
2019-04-03T04:18:22.964Z,8.09
2019-04-03T04:19:20.403Z,8.05
2019-04-03T04:20:20.409Z,8.05
2019-04-03T04:21:20.425Z,8.02
2019-04-03T04:22:20.442Z,8.09
2019-04-03T04:23:23.168Z,8.09
2019-04-03T04:24:20.474Z,8.09
2019-04-03T04:25:20.488Z,8.09
2019-04-03T04:26:20.504Z,8.08
2019-04-03T04:27:20.521Z,8.11
2019-04-03T04:28:20.548Z,8.08
2019-04-03T04:29:20.602Z,8.05
2019-04-03T04:30:20.752Z,8.08
2019-04-03T04:31:20.583Z,8.06
2019-04-03T04:32:20.603Z,8.16
2019-04-03T04:33:20.819Z,8.11
2019-04-03T04:34:20.633Z,8.03
2019-04-03T04:35:21.517Z,8.09
2019-04-03T04:36:23.376Z,8.13
2019-04-03T04:37:20.684Z,8.09
2019-04-03T04:38:20.913Z,8.09
2019-04-03T04:39:20.720Z,8.13
2019-04-03T04:40:20.734Z,8.14
2019-04-03T04:41:20.747Z,8.08
2019-04-03T04:42:20.770Z,8.13
2019-04-03T04:43:20.850Z,8.08
2019-04-03T04:44:20.851Z,8.09
2019-04-03T04:45:20.854Z,8.09
2019-04-03T04:46:20.904Z,8.05
2019-04-03T04:47:20.897Z,8.05
2019-04-03T04:48:21.367Z,8.06
2019-04-03T04:49:22.578Z,8.09
2019-04-03T04:50:20.943Z,8.06
2019-04-03T04:51:20.917Z,8.06
2019-04-03T04:52:21.171Z,8.14
2019-04-03T04:53:20.940Z,8.11
2019-04-03T04:54:20.955Z,8.05
2019-04-03T04:55:20.973Z,8.20
2019-04-03T04:56:20.991Z,8.20
2019-04-03T04:57:21.008Z,8.18
2019-04-03T04:58:21.022Z,8.17
2019-04-03T04:59:21.203Z,8.16
2019-04-03T05:00:21.081Z,8.18
2019-04-03T05:01:21.101Z,8.23
2019-04-03T05:02:21.321Z,8.23
2019-04-03T05:03:21.847Z,8.23
2019-04-03T05:04:21.268Z,8.18
2019-04-03T05:05:21.135Z,8.18
2019-04-03T05:06:21.263Z,8.27
2019-04-03T05:07:21.166Z,8.32
2019-04-03T05:08:21.184Z,8.24
2019-04-03T05:09:21.275Z,8.27
2019-04-03T05:10:21.215Z,8.26
2019-04-03T05:11:21.235Z,8.28
2019-04-03T05:12:21.251Z,8.23
2019-04-03T05:13:21.381Z,8.24
2019-04-03T05:14:21.284Z,8.32
2019-04-03T05:15:23.434Z,8.23
2019-04-03T05:16:21.321Z,8.27
2019-04-03T05:17:21.332Z,8.24
2019-04-03T05:18:21.347Z,8.28
2019-04-03T05:19:21.373Z,8.36
2019-04-03T05:20:21.382Z,8.31
2019-04-03T05:21:22.089Z,8.32
2019-04-03T05:22:21.877Z,8.39
2019-04-03T05:23:21.430Z,8.42
2019-04-03T05:24:21.447Z,8.39
2019-04-03T05:25:21.465Z,8.35
2019-04-03T05:26:21.885Z,8.36
2019-04-03T05:27:21.499Z,8.39
2019-04-03T05:28:21.512Z,8.50
2019-04-03T05:29:21.531Z,8.49
2019-04-03T05:30:21.545Z,8.52
2019-04-03T05:31:21.562Z,8.54
2019-04-03T05:32:21.578Z,8.53
2019-04-03T05:33:21.595Z,8.45
2019-04-03T05:34:21.610Z,8.52
2019-04-03T05:35:21.627Z,8.56
2019-04-03T05:36:21.643Z,8.64
2019-04-03T05:37:21.663Z,8.54
2019-04-03T05:38:22.477Z,8.63
2019-04-03T05:39:22.081Z,8.60
2019-04-03T05:40:21.710Z,8.57
2019-04-03T05:41:21.825Z,8.68
2019-04-03T05:42:21.743Z,8.72
2019-04-03T05:43:21.761Z,8.69
2019-04-03T05:44:23.268Z,8.72
2019-04-03T05:45:21.792Z,8.72
2019-04-03T05:46:21.812Z,8.74
2019-04-03T05:47:21.829Z,8.79
2019-04-03T05:48:21.845Z,8.78
2019-04-03T05:49:21.861Z,8.86
2019-04-03T05:50:21.878Z,8.87
2019-04-03T05:51:21.893Z,8.89
2019-04-03T05:52:21.911Z,8.96
2019-04-03T05:53:21.929Z,8.95
2019-04-03T05:54:22.267Z,8.99
2019-04-03T05:55:21.967Z,9.05
2019-04-03T05:56:21.978Z,8.97
2019-04-03T05:57:21.998Z,9.05
2019-04-03T05:58:22.013Z,9.12
2019-04-03T05:59:22.028Z,9.13
2019-04-03T06:00:22.048Z,9.11
2019-04-03T06:01:22.255Z,9.15
2019-04-03T06:02:22.464Z,9.19
2019-04-03T06:03:36.758Z,9.24
2019-04-03T06:04:22.120Z,9.27
2019-04-03T06:05:22.223Z,9.33
2019-04-03T06:06:22.148Z,9.36
2019-04-03T06:07:22.182Z,9.33
2019-04-03T06:08:22.614Z,9.44
2019-04-03T06:09:23.138Z,9.45
2019-04-03T06:10:22.221Z,9.52
2019-04-03T06:11:22.237Z,9.54
2019-04-03T06:12:22.254Z,9.62
2019-04-03T06:13:22.272Z,9.70
2019-04-03T06:14:23.506Z,9.72
2019-04-03T06:15:22.816Z,9.74
2019-04-03T06:16:24.550Z,9.82
2019-04-03T06:17:22.342Z,9.81
2019-04-03T06:18:22.540Z,9.92
2019-04-03T06:19:22.518Z,9.97
2019-04-03T06:20:22.398Z,10.02
2019-04-03T06:21:22.414Z,10.00
2019-04-03T06:22:22.631Z,10.12
2019-04-03T06:23:22.448Z,10.17
2019-04-03T06:24:24.239Z,10.12
2019-04-03T06:25:22.491Z,10.15
2019-04-03T06:26:22.501Z,10.24
2019-04-03T06:27:22.520Z,10.25
2019-04-03T06:28:22.540Z,10.34
2019-04-03T06:29:22.561Z,10.33
2019-04-03T06:30:22.948Z,10.42
2019-04-03T06:31:22.590Z,10.43
2019-04-03T06:32:24.338Z,10.53
2019-04-03T06:33:22.796Z,10.51
2019-04-03T06:34:22.718Z,10.59
2019-04-03T06:35:22.756Z,10.59
2019-04-03T06:36:22.764Z,10.64
2019-04-03T06:37:22.788Z,10.64
2019-04-03T06:38:24.597Z,10.79
2019-04-03T06:39:24.010Z,10.75
2019-04-03T06:40:22.808Z,10.83
2019-04-03T06:41:22.779Z,10.80
2019-04-03T06:42:22.800Z,10.86
2019-04-03T06:43:22.811Z,10.90
2019-04-03T06:44:23.093Z,10.94
2019-04-03T06:45:24.056Z,11.00
2019-04-03T06:46:22.874Z,10.94
2019-04-03T06:47:22.900Z,11.08
2019-04-03T06:48:22.924Z,11.01
2019-04-03T06:49:22.924Z,11.08
2019-04-03T06:50:22.942Z,11.15
2019-04-03T06:51:22.960Z,11.15
2019-04-03T06:52:23.014Z,11.22
2019-04-03T06:53:25.780Z,11.20
2019-04-03T06:54:23.152Z,11.31
2019-04-03T06:55:24.809Z,11.30
2019-04-03T06:56:23.053Z,11.30
2019-04-03T06:57:23.071Z,11.38
2019-04-03T06:58:23.092Z,11.41
2019-04-03T06:59:23.110Z,11.49
2019-04-03T07:00:23.129Z,11.44
2019-04-03T07:01:23.145Z,11.52
2019-04-03T07:02:23.166Z,11.68
2019-04-03T07:03:23.223Z,11.74
2019-04-03T07:04:23.209Z,11.80
2019-04-03T07:05:23.225Z,11.80
2019-04-03T07:06:23.243Z,11.96
2019-04-03T07:07:32.961Z,12.07
2019-04-03T07:08:30.921Z,12.12
2019-04-03T07:09:33.794Z,12.23
2019-04-03T07:10:25.519Z,12.23
2019-04-03T07:11:24.122Z,12.21
2019-04-03T07:12:23.370Z,12.25
2019-04-03T07:13:23.611Z,12.26
2019-04-03T07:14:25.799Z,12.33
2019-04-03T07:15:24.594Z,12.32
2019-04-03T07:16:23.434Z,12.39
2019-04-03T07:17:23.455Z,12.44
2019-04-03T07:18:23.710Z,12.51
2019-04-03T07:19:23.490Z,12.53
2019-04-03T07:20:23.517Z,12.57
2019-04-03T07:21:24.588Z,12.68
2019-04-03T07:22:23.548Z,12.68
2019-04-03T07:23:23.761Z,12.68
2019-04-03T07:24:23.591Z,12.73
2019-04-03T07:25:23.620Z,12.70
2019-04-03T07:26:23.883Z,12.81
2019-04-03T07:27:23.650Z,12.86
2019-04-03T07:28:23.668Z,12.94
2019-04-03T07:29:25.654Z,12.98
2019-04-03T07:30:23.708Z,13.02
2019-04-03T07:31:24.463Z,13.09
2019-04-03T07:32:25.416Z,13.19
2019-04-03T07:33:24.063Z,13.13
2019-04-03T07:34:23.790Z,13.17
2019-04-03T07:35:23.955Z,13.17
2019-04-03T07:36:23.829Z,13.21
2019-04-03T07:37:23.849Z,13.40
2019-04-03T07:38:23.868Z,13.47
2019-04-03T07:39:23.892Z,13.50
2019-04-03T07:40:23.918Z,13.55
2019-04-03T07:41:23.931Z,13.65
2019-04-03T07:42:24.570Z,13.80
2019-04-03T07:43:26.344Z,13.83
2019-04-03T07:44:23.992Z,13.87
2019-04-03T07:45:24.013Z,13.91
2019-04-03T07:46:24.032Z,14.03
2019-04-03T07:47:24.051Z,14.13
2019-04-03T07:48:24.074Z,14.25
2019-04-03T07:49:24.094Z,14.26
2019-04-03T07:50:24.119Z,14.38
2019-04-03T07:51:24.140Z,14.41
2019-04-03T07:52:24.158Z,14.43
2019-04-03T07:53:24.188Z,14.49
2019-04-03T07:54:26.595Z,14.40
2019-04-03T07:55:25.635Z,14.38
2019-04-03T07:56:25.894Z,14.48
2019-04-03T07:57:24.261Z,14.44
2019-04-03T07:58:25.385Z,14.43
2019-04-03T07:59:24.308Z,14.51
2019-04-03T08:00:24.326Z,14.51
2019-04-03T08:01:24.347Z,14.53
2019-04-03T08:02:24.606Z,14.53
2019-04-03T08:03:24.428Z,14.62
2019-04-03T08:04:25.321Z,14.58
2019-04-03T08:05:24.483Z,14.49
2019-04-03T08:06:24.454Z,14.67
2019-04-03T08:07:24.720Z,14.59
2019-04-03T08:08:24.500Z,14.61
2019-04-03T08:09:24.610Z,14.74
2019-04-03T08:10:24.597Z,14.77
2019-04-03T08:11:24.625Z,14.78
2019-04-03T08:12:24.651Z,14.78
2019-04-03T08:13:24.660Z,14.82
2019-04-03T08:14:24.680Z,14.85
2019-04-03T08:15:24.873Z,14.74
2019-04-03T08:16:24.661Z,14.85
2019-04-03T08:17:24.684Z,14.77
2019-04-03T08:18:24.705Z,14.93
2019-04-03T08:19:24.728Z,14.90
2019-04-03T08:20:26.025Z,14.93
2019-04-03T08:21:24.769Z,14.92
2019-04-03T08:22:24.788Z,14.97
2019-04-03T08:23:24.810Z,15.00
2019-04-03T08:24:24.833Z,15.00
2019-04-03T08:25:24.852Z,15.05
2019-04-03T08:26:26.646Z,14.99
2019-04-03T08:27:24.895Z,15.11
2019-04-03T08:28:28.022Z,15.04
2019-04-03T08:29:24.937Z,15.08
2019-04-03T08:30:24.960Z,15.07
2019-04-03T08:31:24.984Z,15.08
2019-04-03T08:32:25.001Z,15.11
2019-04-03T08:33:27.364Z,15.11
2019-04-03T08:34:25.101Z,15.07
2019-04-03T08:35:25.184Z,15.18
2019-04-03T08:36:26.469Z,15.08
2019-04-03T08:37:30.617Z,15.15
2019-04-03T08:38:25.151Z,15.12
2019-04-03T08:39:25.148Z,15.19
2019-04-03T08:40:25.173Z,15.27
2019-04-03T08:41:25.440Z,15.25
2019-04-03T08:42:27.495Z,15.33
2019-04-03T08:43:25.465Z,15.29
2019-04-03T08:44:25.252Z,15.30
2019-04-03T08:45:25.275Z,15.30
2019-04-03T08:46:25.295Z,15.36
2019-04-03T08:47:25.341Z,15.41
2019-04-03T08:48:25.338Z,15.35
2019-04-03T08:49:26.303Z,15.35
2019-04-03T08:50:26.782Z,15.33
2019-04-03T08:51:25.404Z,15.35
2019-04-03T08:52:25.421Z,15.32
2019-04-03T08:53:25.443Z,15.41
2019-04-03T08:54:25.462Z,15.41
2019-04-03T08:55:25.484Z,15.32
2019-04-03T08:56:25.510Z,15.36
2019-04-03T08:57:25.525Z,15.27
2019-04-03T08:58:26.591Z,15.43
2019-04-03T08:59:27.974Z,15.45
2019-04-03T09:00:25.588Z,15.43
2019-04-03T09:01:25.606Z,15.45
2019-04-03T09:02:25.630Z,15.47
2019-04-03T09:03:25.654Z,15.54
2019-04-03T09:04:25.752Z,15.55
2019-04-03T09:05:25.694Z,15.59
2019-04-03T09:06:25.945Z,15.60
2019-04-03T09:07:25.936Z,15.69
2019-04-03T09:08:26.742Z,15.66
2019-04-03T09:09:27.012Z,15.73
2019-04-03T09:10:25.796Z,15.76
2019-04-03T09:11:25.819Z,15.76
2019-04-03T09:12:25.841Z,15.83
2019-04-03T09:13:25.871Z,15.76
2019-04-03T09:14:26.184Z,15.90
2019-04-03T09:15:27.685Z,15.98
2019-04-03T09:16:25.921Z,15.96
2019-04-03T09:17:25.944Z,15.91
2019-04-03T09:18:25.967Z,15.94
2019-04-03T09:19:25.984Z,15.96
2019-04-03T09:20:26.008Z,16.05
2019-04-03T09:21:26.136Z,16.00
2019-04-03T09:22:26.144Z,16.03
2019-04-03T09:23:26.071Z,16.13
2019-04-03T09:24:28.617Z,16.08
2019-04-03T09:25:26.119Z,16.12
2019-04-03T09:26:26.154Z,16.09
2019-04-03T09:27:26.187Z,16.17
2019-04-03T09:28:26.176Z,16.24
2019-04-03T09:29:26.328Z,16.24
2019-04-03T09:30:26.216Z,16.29
2019-04-03T09:31:26.248Z,16.36
2019-04-03T09:32:26.262Z,16.29
2019-04-03T09:33:29.013Z,16.26
2019-04-03T09:34:28.749Z,16.31
2019-04-03T09:35:26.622Z,16.39
2019-04-03T09:36:26.346Z,16.44
2019-04-03T09:37:26.584Z,16.49
2019-04-03T09:38:26.410Z,16.41
2019-04-03T09:39:26.441Z,16.50
2019-04-03T09:40:26.502Z,16.54
2019-04-03T09:41:26.527Z,16.54
2019-04-03T09:42:26.509Z,16.62
2019-04-03T09:43:26.822Z,16.61
2019-04-03T09:44:26.543Z,16.72
2019-04-03T09:45:28.306Z,16.72
2019-04-03T09:46:26.752Z,16.76
2019-04-03T09:47:26.580Z,16.79
2019-04-03T09:48:26.684Z,16.80
2019-04-03T09:49:26.685Z,16.84
2019-04-03T09:50:26.897Z,16.83
2019-04-03T09:51:26.915Z,16.94
2019-04-03T09:52:37.998Z,16.92
2019-04-03T09:53:26.769Z,16.95
2019-04-03T09:54:28.332Z,16.95
2019-04-03T09:55:26.972Z,17.02
2019-04-03T09:56:26.781Z,17.07
2019-04-03T09:57:26.823Z,17.12
2019-04-03T09:58:26.817Z,17.10
2019-04-03T09:59:26.847Z,17.22
2019-04-03T10:00:27.155Z,17.20
2019-04-03T10:01:26.884Z,17.24
2019-04-03T10:02:26.906Z,17.27
2019-04-03T10:03:27.040Z,17.38
2019-04-03T10:04:26.948Z,17.35
2019-04-03T10:05:28.998Z,17.41
2019-04-03T10:06:26.992Z,17.37
2019-04-03T10:07:27.023Z,17.34
2019-04-03T10:08:27.078Z,17.42
2019-04-03T10:09:27.642Z,17.41
2019-04-03T10:10:27.079Z,17.47
2019-04-03T10:11:27.103Z,17.37
2019-04-03T10:12:27.126Z,17.47
2019-04-03T10:13:27.148Z,17.53
2019-04-03T10:14:28.134Z,17.59
2019-04-03T10:15:27.264Z,17.53
2019-04-03T10:16:27.400Z,17.52
2019-04-03T10:17:27.234Z,17.66
2019-04-03T10:18:27.277Z,17.50
2019-04-03T10:19:27.278Z,17.56
2019-04-03T10:20:27.509Z,17.65
2019-04-03T10:21:27.322Z,17.60
2019-04-03T10:22:27.346Z,17.69
2019-04-03T10:23:29.041Z,17.72
2019-04-03T10:24:28.915Z,17.79
2019-04-03T10:25:27.410Z,17.79
2019-04-03T10:26:27.908Z,17.86
2019-04-03T10:27:27.458Z,17.93
2019-04-03T10:28:27.576Z,17.90
2019-04-03T10:29:27.502Z,18.02
2019-04-03T10:30:27.526Z,18.05
2019-04-03T10:31:27.545Z,18.08
2019-04-03T10:32:28.212Z,18.12
2019-04-03T10:33:29.060Z,18.12
2019-04-03T10:34:27.623Z,18.27
2019-04-03T10:35:27.639Z,18.30
2019-04-03T10:36:27.666Z,18.30
2019-04-03T10:37:27.753Z,18.27
2019-04-03T10:38:27.704Z,18.36
2019-04-03T10:39:27.728Z,18.41
2019-04-03T10:40:27.750Z,18.46
2019-04-03T10:41:28.708Z,18.45
2019-04-03T10:42:30.596Z,18.53
2019-04-03T10:43:27.823Z,18.55
2019-04-03T10:44:27.841Z,18.63
2019-04-03T10:45:27.883Z,18.67
2019-04-03T10:46:27.893Z,18.68
2019-04-03T10:47:40.026Z,18.74
2019-04-03T10:48:28.635Z,18.82
2019-04-03T10:49:27.962Z,18.83
2019-04-03T10:50:27.990Z,18.96
2019-04-03T10:51:30.687Z,18.92
2019-04-03T10:52:28.031Z,19.12
2019-04-03T10:53:28.053Z,19.19
2019-04-03T10:54:28.252Z,19.22
2019-04-03T10:55:29.399Z,19.30
2019-04-03T10:56:29.326Z,19.32
2019-04-03T10:57:28.153Z,19.41
2019-04-03T10:58:28.176Z,19.44
2019-04-03T10:59:28.200Z,19.52
2019-04-03T11:00:29.321Z,19.55
2019-04-03T11:01:28.253Z,19.62
2019-04-03T11:02:28.626Z,19.72
2019-04-03T11:03:28.414Z,19.70
2019-04-03T11:04:28.538Z,19.79
2019-04-03T11:05:28.381Z,19.90
2019-04-03T11:06:28.446Z,20.02
2019-04-03T11:07:28.452Z,19.96
2019-04-03T11:08:28.436Z,20.04
2019-04-03T11:09:28.451Z,20.12
2019-04-03T11:10:28.478Z,20.14
2019-04-03T11:11:29.704Z,20.19
2019-04-03T11:12:29.977Z,20.33
2019-04-03T11:13:28.557Z,20.22
2019-04-03T11:14:28.581Z,20.37
2019-04-03T11:15:28.609Z,20.37
2019-04-03T11:16:28.631Z,20.42
2019-04-03T11:17:28.659Z,20.52
2019-04-03T11:18:28.685Z,20.63
2019-04-03T11:19:28.920Z,20.68
2019-04-03T11:20:28.735Z,20.63
2019-04-03T11:21:28.762Z,20.59
2019-04-03T11:22:39.667Z,20.55
2019-04-03T11:23:38.387Z,20.60
2019-04-03T11:24:29.262Z,20.59
2019-04-03T11:25:28.864Z,20.67
2019-04-03T11:26:28.921Z,20.67
2019-04-03T11:28:28.939Z,20.74
2019-04-03T11:29:29.364Z,20.78
2019-04-03T11:30:28.991Z,20.75
2019-04-03T11:30:54.598Z,20.63
2019-04-03T11:31:29.721Z,20.93
2019-04-03T11:32:29.360Z,20.89
2019-04-03T11:33:29.068Z,20.95
2019-04-03T11:34:29.092Z,20.96
2019-04-03T11:35:29.157Z,20.93
2019-04-03T11:36:30.584Z,21.00
2019-04-03T11:37:31.893Z,21.05
2019-04-03T11:38:29.845Z,21.04
2019-04-03T11:39:29.223Z,21.07
2019-04-03T11:40:29.246Z,21.01
2019-04-03T11:41:29.271Z,21.04
2019-04-03T11:42:30.031Z,21.04
2019-04-03T11:43:31.019Z,21.03
2019-04-03T11:44:29.347Z,21.14
2019-04-03T11:45:29.399Z,21.05
2019-04-03T11:46:29.396Z,21.13
2019-04-03T11:47:29.421Z,21.15
2019-04-03T11:48:29.448Z,21.25
2019-04-03T11:49:29.474Z,21.25
2019-04-03T11:50:29.951Z,21.23
2019-04-03T11:51:30.221Z,21.37
2019-04-03T11:52:29.803Z,21.38
2019-04-03T11:53:29.574Z,21.48
2019-04-03T11:54:29.730Z,21.58
2019-04-03T11:55:29.938Z,21.60
2019-04-03T11:56:29.653Z,21.75
2019-04-03T11:57:29.763Z,21.75
2019-04-03T11:58:29.920Z,21.81
2019-04-03T11:59:29.730Z,21.89
2019-04-03T12:00:29.807Z,21.85
2019-04-03T12:01:29.802Z,22.06
2019-04-03T12:02:29.809Z,21.96
2019-04-03T12:03:29.902Z,22.01
2019-04-03T12:04:30.183Z,21.97
2019-04-03T12:05:29.888Z,21.96
2019-04-03T12:06:29.914Z,22.01
2019-04-03T12:07:29.940Z,21.91
2019-04-03T12:08:30.292Z,21.89
2019-04-03T12:09:31.652Z,21.83
2019-04-03T12:10:30.020Z,21.81
2019-04-03T12:11:30.044Z,21.80
2019-04-03T12:12:30.071Z,21.78
2019-04-03T12:13:30.096Z,21.81
2019-04-03T12:14:30.122Z,21.88
2019-04-03T12:15:30.187Z,21.94
2019-04-03T12:16:30.496Z,21.89
2019-04-03T12:17:30.621Z,21.89
2019-04-03T12:18:33.046Z,21.94
2019-04-03T12:19:30.440Z,21.81
2019-04-03T12:20:30.506Z,21.80
2019-04-03T12:21:30.385Z,21.88
2019-04-03T12:22:30.572Z,21.88
2019-04-03T12:23:30.354Z,21.91
2019-04-03T12:24:30.469Z,21.92
2019-04-03T12:25:30.883Z,21.88
2019-04-03T12:26:30.884Z,21.88
2019-04-03T12:27:30.454Z,21.84
2019-04-03T12:28:30.607Z,21.80
2019-04-03T12:29:30.506Z,21.83
2019-04-03T12:30:30.541Z,21.81
2019-04-03T12:31:30.556Z,21.84
2019-04-03T12:32:37.406Z,21.85
2019-04-03T12:33:30.607Z,21.78
2019-04-03T12:34:30.631Z,21.77
2019-04-03T12:35:30.856Z,21.88
2019-04-03T12:36:30.684Z,21.84
2019-04-03T12:37:30.710Z,21.77
2019-04-03T12:38:30.733Z,21.85
2019-04-03T12:39:30.820Z,21.81
2019-04-03T12:40:32.722Z,21.78
2019-04-03T12:41:30.898Z,21.84
2019-04-03T12:42:31.092Z,21.83
2019-04-03T12:43:30.859Z,21.72
2019-04-03T12:44:30.908Z,21.85
2019-04-03T12:45:30.911Z,21.88
2019-04-03T12:46:32.831Z,21.91
2019-04-03T12:47:30.962Z,21.97
2019-04-03T12:48:31.099Z,21.97
2019-04-03T12:49:31.215Z,22.14
2019-04-03T12:50:31.036Z,22.07
2019-04-03T12:51:31.575Z,22.04
2019-04-03T12:52:31.144Z,22.07
2019-04-03T12:53:31.266Z,22.21
2019-04-03T12:54:31.175Z,22.23
2019-04-03T12:55:31.337Z,22.31
2019-04-03T12:56:31.401Z,22.30
2019-04-03T12:57:33.081Z,22.41
2019-04-03T12:58:31.243Z,22.46
2019-04-03T12:59:31.386Z,22.43
2019-04-03T13:00:31.511Z,22.55
2019-04-03T13:01:31.329Z,22.52
2019-04-03T13:02:31.512Z,22.62
2019-04-03T13:03:31.371Z,22.63
2019-04-03T13:04:32.468Z,22.59